Time;durP1;ratioP1;P1;durP2;ratioP2;P2;SDS_P1;SDS_P2;PMS_P1;PMS_P2;Temp;Humidity;BMP_temperature;BMP_pressure;BME280_temperature;BME280_humidity;BME280_pressure;Samples;Min_cycle;Max_cycle;Signal;HPM_P1;HPM_P2
2022/12/17 13:06:07;;;;;;;61.40;51.80;;;;;;;-1.71;100.00;102495.44;5094481;28;20426;-49
2022/12/17 13:08:35;;;;;;;63.63;53.27;;;;;;;-1.65;100.00;102501.28;5093770;28;20499;-50
2022/12/17 13:11:11;;;;;;;69.03;52.63;;;;;;;-1.74;100.00;102492.97;5093859;28;20429;-48
2022/12/17 13:13:54;;;;;;;67.10;52.50;;;;;;;-1.75;100.00;102490.41;5093163;28;20469;-48
2022/12/17 13:16:35;;;;;;;75.93;52.60;;;;;;;-1.87;100.00;102494.47;5093230;28;20770;-46
2022/12/17 13:19:05;;;;;;;69.00;51.43;;;;;;;-1.85;100.00;102486.56;5111818;28;20420;-46
2022/12/17 13:21:34;;;;;;;59.33;49.57;;;;;;;-1.87;100.00;102491.84;5093714;28;20434;-45
2022/12/17 13:24:11;;;;;;;71.23;50.90;;;;;;;-1.92;100.00;102487.78;5093430;28;20468;-45
2022/12/17 13:26:45;;;;;;;69.47;52.10;;;;;;;-1.94;100.00;102493.06;5093553;28;20425;-47
2022/12/17 13:29:22;;;;;;;85.77;54.23;;;;;;;-2.00;100.00;102490.75;5093429;28;20486;-45
2022/12/17 13:32:08;;;;;;;71.07;53.00;;;;;;;-2.09;100.00;102483.34;5092774;28;20469;-47
2022/12/17 13:34:46;;;;;;;64.60;52.40;;;;;;;-2.13;100.00;102481.81;5093063;28;20465;-49
2022/12/17 13:37:26;;;;;;;75.57;55.00;;;;;;;-2.21;100.00;102483.91;5093601;28;20437;-49
2022/12/17 13:40:03;;;;;;;79.53;54.00;;;;;;;-2.25;100.00;102492.84;5098771;28;20424;-48
2022/12/17 13:42:34;;;;;;;77.40;53.00;;;;;;;-2.29;100.00;102499.13;5110423;27;20460;-45
2022/12/17 13:45:02;;;;;;;77.53;52.70;;;;;;;-2.34;100.00;102507.19;5092748;28;21121;-45
2022/12/17 13:47:32;;;;;;;72.10;52.03;;;;;;;-2.37;100.00;102499.50;5092813;28;20469;-47
2022/12/17 13:50:02;;;;;;;82.63;52.83;;;;;;;-2.46;100.00;102509.50;5093444;28;20422;-50
2022/12/17 13:52:51;;;;;;;67.63;51.17;;;;;;;-2.50;100.00;102507.94;5092496;28;20485;-51
2022/12/17 13:55:21;;;;;;;66.70;49.57;;;;;;;-2.56;100.00;102505.59;5092852;28;21006;-49
2022/12/17 13:57:51;;;;;;;70.20;50.63;;;;;;;-2.62;100.00;102514.56;5092735;28;20429;-49
2022/12/17 14:00:22;;;;;;;79.90;53.40;;;;;;;-2.59;100.00;102504.00;5095108;28;20429;-47
2022/12/17 14:02:50;;;;;;;89.73;55.60;;;;;;;-2.63;100.00;102504.22;5092226;28;20469;-49
2022/12/17 14:05:29;;;;;;;70.83;51.53;;;;;;;-2.67;100.00;102508.72;5092557;28;20429;-45
2022/12/17 14:08:01;;;;;;;75.50;53.27;;;;;;;-2.68;100.00;102506.16;5092283;28;21015;-48
2022/12/17 14:10:29;;;;;;;85.50;54.73;;;;;;;-2.74;100.00;102509.03;5092926;28;20433;-46
2022/12/17 14:13:04;;;;;;;72.60;52.03;;;;;;;-2.73;100.00;102513.38;5092045;28;20924;-48
2022/12/17 14:15:32;;;;;;;71.40;53.60;;;;;;;-2.71;100.00;102506.28;5092445;28;20930;-45
2022/12/17 14:45:26;;;;;;;70.73;56.43;;;;;;;-3.39;100.00;102547.50;5097830;27;20587;-49
2022/12/17 14:47:55;;;;;;;75.13;52.10;;;;;;;-3.48;100.00;102534.00;5088971;28;20440;-48
2022/12/17 14:50:27;;;;;;;80.50;54.57;;;;;;;-3.49;100.00;102540.13;5088771;28;20436;-50
2022/12/17 14:52:56;;;;;;;71.40;54.27;;;;;;;-3.53;100.00;102536.81;5088766;28;20944;-52
2022/12/17 14:55:27;;;;;;;80.77;51.77;;;;;;;-3.54;100.00;102547.28;5087507;27;20461;-51
2022/12/17 14:58:08;;;;;;;78.70;51.27;;;;;;;-3.54;100.00;102542.94;5088800;28;20445;-49
2022/12/17 15:00:39;;;;;;;71.80;52.03;;;;;;;-3.55;100.00;102548.19;5111026;23;20469;-48
2022/12/17 15:03:11;;;;;;;75.53;53.33;;;;;;;-3.55;100.00;102546.44;5088536;28;20526;-49
2022/12/17 15:05:38;;;;;;;65.53;52.83;;;;;;;-3.56;100.00;102544.75;5088061;28;20457;-46
2022/12/17 15:08:06;;;;;;;64.93;52.03;;;;;;;-3.59;100.00;102538.81;5088764;28;20425;-46
2022/12/17 15:10:34;;;;;;;81.23;54.40;;;;;;;-3.61;100.00;102545.84;5088506;28;20457;-49
2022/12/17 15:13:01;;;;;;;81.97;54.87;;;;;;;-3.63;100.00;102552.88;5088585;28;20456;-50
2022/12/17 15:15:29;;;;;;;78.77;52.03;;;;;;;-3.64;100.00;102553.78;5087772;28;20828;-47
2022/12/17 15:17:58;;;;;;;76.63;53.47;;;;;;;-3.67;100.00;102551.28;5088630;28;20441;-48
2022/12/17 15:20:26;;;;;;;84.23;52.63;;;;;;;-3.69;100.00;102558.34;5088520;28;20514;-51
2022/12/17 15:22:54;;;;;;;75.10;53.63;;;;;;;-3.75;100.00;102561.19;5088444;28;20426;-47
2022/12/17 15:25:21;;;;;;;78.27;54.07;;;;;;;-3.74;100.00;102560.28;5087760;28;20465;-51
2022/12/17 15:27:49;;;;;;;76.50;52.33;;;;;;;-3.76;100.00;102546.47;5088254;28;20434;-49
2022/12/17 15:30:18;;;;;;;81.50;54.43;;;;;;;-3.77;100.00;102560.41;5088323;28;20449;-47
2022/12/17 15:32:46;;;;;;;70.43;52.17;;;;;;;-3.77;100.00;102556.06;5085316;28;20507;-51
2022/12/17 15:35:15;;;;;;;77.30;52.77;;;;;;;-3.77;100.00;102553.44;5077858;28;20820;-50
2022/12/17 15:37:42;;;;;;;90.27;53.43;;;;;;;-3.77;100.00;102547.38;5064903;28;20430;-47
2022/12/17 15:40:11;;;;;;;77.80;51.93;;;;;;;-3.75;100.00;102555.97;5066361;28;20465;-48
2022/12/17 15:45:31;;;;;;;72.80;50.33;;;;;;;-3.72;100.00;102564.53;5051746;28;20455;-48
2022/12/17 15:47:59;;;;;;;76.73;53.30;;;;;;;-3.73;100.00;102559.38;5048339;28;20431;-50
2022/12/17 15:50:28;;;;;;;66.37;50.03;;;;;;;-3.71;100.00;102571.44;5051626;28;21056;-52
2022/12/17 15:52:56;;;;;;;77.87;55.20;;;;;;;-3.69;100.00;102569.63;5051748;28;20435;-48
2022/12/17 15:55:24;;;;;;;84.20;53.60;;;;;;;-3.69;100.00;102573.97;5051268;28;20888;-48
2022/12/17 15:57:51;;;;;;;71.70;51.80;;;;;;;-3.68;100.00;102576.53;5051870;28;20427;-49
2022/12/17 16:00:19;;;;;;;93.47;53.80;;;;;;;-3.67;100.00;102561.72;5051547;28;20972;-48
2022/12/17 16:02:47;;;;;;;74.03;53.43;;;;;;;-3.67;100.00;102575.63;5051941;28;20442;-47
2022/12/17 16:05:15;;;;;;;77.20;54.80;;;;;;;-3.68;100.00;102562.66;5050219;28;20463;-48
2022/12/17 16:07:44;;;;;;;74.27;51.93;;;;;;;-3.66;100.00;102566.03;5051569;28;20435;-50
2022/12/17 16:10:14;;;;;;;76.73;54.77;;;;;;;-3.69;100.00;102563.56;5052029;28;20459;-50
2022/12/17 16:12:42;;;;;;;88.13;53.67;;;;;;;-3.66;100.00;102568.63;5053627;28;20424;-50
2022/12/17 16:15:11;;;;;;;79.20;54.60;;;;;;;-3.67;100.00;102567.78;5061179;28;20466;-51
2022/12/17 16:17:38;;;;;;;71.10;55.00;;;;;;;-3.68;100.00;102576.53;5073709;28;20435;-50
2022/12/17 16:20:07;;;;;;;74.93;55.13;;;;;;;-3.69;100.00;102567.00;5073598;28;20821;-51
2022/12/17 16:22:35;;;;;;;76.20;53.13;;;;;;;-3.67;100.00;102572.16;5073519;28;20437;-49
2022/12/17 16:25:04;;;;;;;83.20;54.77;;;;;;;-3.69;100.00;102567.00;5072415;28;20470;-49
2022/12/17 16:27:32;;;;;;;79.07;54.90;;;;;;;-3.64;100.00;102579.84;5073523;28;20431;-52
2022/12/17 16:30:00;;;;;;;80.63;55.07;;;;;;;-3.68;100.00;102567.88;5073454;28;20454;-50
2022/12/17 16:32:27;;;;;;;73.60;52.20;;;;;;;-3.70;100.00;102567.09;5043933;28;20872;-53
2022/12/17 16:35:03;;;;;;;78.60;52.00;;;;;;;-3.69;100.00;102574.84;5073358;28;20426;-47
2022/12/17 16:37:31;;;;;;;78.17;57.97;;;;;;;-3.71;100.00;102568.84;5062215;28;20431;-48
2022/12/17 16:39:58;;;;;;;70.40;50.70;;;;;;;-3.72;100.00;102574.94;5019586;28;20521;-50
2022/12/17 16:42:28;;;;;;;77.87;52.23;;;;;;;-3.68;100.00;102568.72;5053221;28;20431;-49
2022/12/17 16:44:56;;;;;;;75.23;52.67;;;;;;;-3.73;100.00;102575.03;5052682;28;20545;-48
2022/12/17 16:47:23;;;;;;;77.23;52.40;;;;;;;-3.73;100.00;102567.22;5053244;28;21086;-49
2022/12/17 16:49:51;;;;;;;79.10;55.80;;;;;;;-3.75;100.00;102572.47;5039197;28;20528;-49
2022/12/17 16:52:19;;;;;;;86.20;55.57;;;;;;;-3.73;100.00;102578.47;5072978;28;21131;-52
2022/12/17 16:54:47;;;;;;;80.03;53.60;;;;;;;-3.74;100.00;102589.81;5072405;28;20476;-49
2022/12/17 16:57:14;;;;;;;80.63;55.97;;;;;;;-3.74;100.00;102586.34;5072012;28;20948;-49
2022/12/17 17:00:10;;;;;;;66.83;50.20;;;;;;;-3.72;100.00;102590.59;5062216;28;21008;-48
2022/12/17 17:02:38;;;;;;;80.40;55.17;;;;;;;-3.70;100.00;102588.75;5052955;28;20494;-53
2022/12/17 17:05:06;;;;;;;83.87;54.07;;;;;;;-3.70;100.00;102596.59;5052612;28;20479;-47
2022/12/17 17:07:34;;;;;;;100.20;59.07;;;;;;;-3.66;100.00;102597.31;5052304;28;20938;-51
2022/12/17 17:10:02;;;;;;;92.53;59.20;;;;;;;-3.66;100.00;102590.34;5051948;28;20466;-50
2022/12/17 17:12:29;;;;;;;82.20;53.07;;;;;;;-3.64;100.00;102603.31;5051944;28;20944;-48
2022/12/17 17:14:57;;;;;;;87.20;55.70;;;;;;;-3.70;100.00;102598.38;5038157;28;20455;-48
2022/12/17 17:17:26;;;;;;;83.23;53.20;;;;;;;-3.71;100.00;102597.53;5030737;28;20440;-47
2022/12/17 17:20:14;;;;;;;90.83;54.40;;;;;;;-3.74;100.00;102595.03;5030367;28;20475;-46
2022/12/17 17:22:42;;;;;;;80.07;54.47;;;;;;;-3.74;100.00;102594.19;5031444;28;20490;-49
2022/12/17 17:25:10;;;;;;;95.77;55.77;;;;;;;-3.74;100.00;102594.19;5030759;28;20467;-47
2022/12/17 17:27:38;;;;;;;77.43;53.97;;;;;;;-3.78;100.00;102595.19;5030355;28;20482;-47
2022/12/17 17:30:06;;;;;;;83.90;55.67;;;;;;;-3.81;100.00;102605.75;5030538;28;20472;-49
2022/12/17 17:32:36;;;;;;;90.47;55.77;;;;;;;-3.83;100.00;102599.75;5031177;28;20494;-45
2022/12/17 17:35:04;;;;;;;91.03;55.90;;;;;;;-3.88;100.00;102602.50;5032951;28;21163;-50
2022/12/17 17:37:32;;;;;;;83.07;53.73;;;;;;;-3.90;100.00;102606.94;5052158;28;20431;-47
2022/12/17 17:39:59;;;;;;;83.30;52.00;;;;;;;-3.94;100.00;102614.03;5050886;28;20978;-47
2022/12/17 17:42:27;;;;;;;88.23;56.77;;;;;;;-3.94;100.00;102618.38;5051961;28;20458;-48
2022/12/17 17:44:55;;;;;;;79.77;54.80;;;;;;;-3.97;100.00;102616.75;5050792;28;20486;-48
2022/12/17 17:47:22;;;;;;;84.90;55.03;;;;;;;-3.98;100.00;102615.06;5051704;28;20435;-47
2022/12/17 17:49:51;;;;;;;93.63;56.53;;;;;;;-3.99;100.00;102626.38;5051419;28;20463;-49
2022/12/17 17:52:19;;;;;;;83.03;56.77;;;;;;;-4.00;100.00;102627.28;5052249;28;20434;-45
2022/12/17 17:54:47;;;;;;;91.50;57.83;;;;;;;-3.98;100.00;102627.25;5052016;28;20435;-47
2022/12/17 17:57:15;;;;;;;97.67;56.10;;;;;;;-4.00;100.00;102629.91;5052182;28;20448;-47
2022/12/17 17:59:42;;;;;;;89.83;55.10;;;;;;;-4.02;100.00;102629.13;5048690;28;20475;-45
2022/12/17 18:02:11;;;;;;;88.67;54.30;;;;;;;-4.02;100.00;102626.50;5051724;28;20476;-49
2022/12/17 18:04:39;;;;;;;95.93;53.23;;;;;;;-4.00;100.00;102632.50;5051726;28;20475;-48
2022/12/17 18:07:08;;;;;;;109.07;56.87;;;;;;;-3.99;100.00;102628.13;5051956;28;20764;-45
2022/12/17 18:09:52;;;;;;;84.23;54.73;;;;;;;-4.02;100.00;102634.31;5062609;28;20815;-48
2022/12/17 18:15:07;;;;;;;97.20;58.83;;;;;;;-4.04;100.00;102643.09;5070105;28;20442;-50
2022/12/17 18:17:45;;;;;;;89.37;54.70;;;;;;;-4.14;100.00;102642.59;5071576;28;20434;-49
2022/12/17 18:20:13;;;;;;;78.70;52.27;;;;;;;-4.14;100.00;102640.00;5071245;28;20896;-46
2022/12/17 18:22:44;;;;;;;82.47;54.43;;;;;;;-4.12;100.00;102634.75;5071570;28;20430;-47
2022/12/17 18:25:12;;;;;;;92.97;54.83;;;;;;;-4.12;100.00;102635.56;5021384;28;20853;-46
2022/12/17 18:27:39;;;;;;;87.53;54.87;;;;;;;-4.12;100.00;102640.78;5071140;28;20445;-47
2022/12/17 18:30:08;;;;;;;75.87;51.10;;;;;;;-4.16;100.00;102643.56;5071537;28;20455;-48
2022/12/17 18:32:36;;;;;;;77.73;53.57;;;;;;;-4.16;100.00;102636.59;5071291;28;20437;-46
2022/12/17 18:35:04;;;;;;;94.30;53.80;;;;;;;-4.19;100.00;102641.06;5071115;28;20426;-50
2022/12/17 18:37:32;;;;;;;87.80;56.87;;;;;;;-4.19;100.00;102644.53;5070860;28;20527;-48
2022/12/17 18:40:00;;;;;;;95.47;55.33;;;;;;;-4.16;100.00;102649.63;5063215;28;20450;-48
2022/12/17 18:45:14;;;;;;;89.43;54.43;;;;;;;-4.16;100.00;102662.66;5071144;28;20481;-47
2022/12/17 18:47:43;;;;;;;84.70;56.17;;;;;;;-4.22;100.00;102664.63;5049744;28;20497;-49
2022/12/17 18:50:11;;;;;;;77.20;53.03;;;;;;;-4.21;100.00;102659.34;5026140;28;20478;-51
2022/12/17 18:52:39;;;;;;;79.47;54.80;;;;;;;-4.23;100.00;102665.50;5051061;28;20439;-47
2022/12/17 18:55:11;;;;;;;97.60;57.70;;;;;;;-4.27;100.00;102667.38;5050558;28;20995;-48
2022/12/17 18:57:40;;;;;;;88.03;56.40;;;;;;;-4.29;100.00;102664.00;5024864;28;21302;-50
2022/12/17 19:00:09;;;;;;;85.73;53.43;;;;;;;-4.34;100.00;102662.47;5050949;28;20918;-51
2022/12/17 19:02:37;;;;;;;83.23;53.90;;;;;;;-4.32;100.00;102665.84;5050956;28;21127;-49
2022/12/17 19:05:05;;;;;;;97.70;57.03;;;;;;;-4.34;100.00;102659.84;5050888;28;20427;-48
2022/12/17 19:07:33;;;;;;;84.43;51.80;;;;;;;-4.34;100.00;102662.47;5050615;28;20474;-49
2022/12/17 19:10:00;;;;;;;87.17;54.13;;;;;;;-4.32;100.00;102666.69;5050710;28;20865;-52
2022/12/17 19:12:29;;;;;;;81.00;56.30;;;;;;;-4.32;100.00;102669.31;5051020;28;20435;-51
2022/12/17 19:14:57;;;;;;;90.20;59.27;;;;;;;-4.34;100.00;102667.66;5050597;28;20470;-48
2022/12/17 19:17:25;;;;;;;85.10;57.50;;;;;;;-4.36;100.00;102662.50;5043901;28;20474;-51
2022/12/17 19:19:52;;;;;;;83.23;55.47;;;;;;;-4.36;100.00;102670.31;5051696;28;20546;-48
2022/12/17 19:22:20;;;;;;;86.13;53.27;;;;;;;-4.35;100.00;102673.75;5054681;28;20925;-47
2022/12/17 19:24:48;;;;;;;79.87;53.60;;;;;;;-4.41;100.00;102664.41;5054103;28;20529;-52
2022/12/17 19:27:15;;;;;;;92.60;56.33;;;;;;;-4.45;100.00;102680.22;5054096;28;20467;-47
2022/12/17 19:29:44;;;;;;;88.90;55.17;;;;;;;-4.45;100.00;102677.63;5054432;28;20454;-49
2022/12/17 19:32:16;;;;;;;87.47;57.40;;;;;;;-4.47;100.00;102686.31;5054587;28;20445;-50
2022/12/17 19:34:44;;;;;;;82.97;56.43;;;;;;;-4.50;100.00;102693.38;5054516;28;20496;-48
2022/12/17 19:37:12;;;;;;;86.60;58.13;;;;;;;-4.50;100.00;102689.03;5048578;28;20464;-47
2022/12/17 19:39:39;;;;;;;102.73;60.33;;;;;;;-4.51;100.00;102684.72;5051365;28;20443;-50
2022/12/17 19:42:23;;;;;;;88.97;56.50;;;;;;;-4.53;100.00;102681.31;5054106;28;21015;-51
2022/12/17 19:44:53;;;;;;;107.50;61.13;;;;;;;-4.53;100.00;102688.28;5054336;28;20492;-48
2022/12/17 19:47:22;;;;;;;93.03;60.20;;;;;;;-4.56;100.00;102686.63;5061775;28;20549;-48
2022/12/17 19:49:50;;;;;;;79.73;55.90;;;;;;;-4.55;100.00;102690.09;5074275;28;20455;-48
2022/12/17 19:52:17;;;;;;;89.00;61.07;;;;;;;-4.59;100.00;102696.31;5074092;28;20438;-52
2022/12/17 19:54:45;;;;;;;91.60;57.90;;;;;;;-4.60;100.00;102699.81;5073371;28;20434;-52
2022/12/17 19:57:12;;;;;;;100.40;61.63;;;;;;;-4.60;100.00;102695.44;5066954;28;20462;-51
2022/12/17 19:59:40;;;;;;;97.57;58.57;;;;;;;-4.58;100.00;102690.19;5053853;28;20463;-47
2022/12/17 20:02:10;;;;;;;101.77;60.80;;;;;;;-4.59;100.00;102685.88;5054186;28;20434;-47
2022/12/17 20:04:38;;;;;;;103.20;60.33;;;;;;;-4.58;100.00;102685.00;5053702;28;21125;-50
2022/12/17 20:07:06;;;;;;;84.70;59.47;;;;;;;-4.68;100.00;102688.81;5059135;28;20459;-49
2022/12/17 20:09:33;;;;;;;101.43;58.87;;;;;;;-4.67;100.00;102687.91;5073375;28;20455;-50
2022/12/17 20:12:01;;;;;;;100.07;63.30;;;;;;;-4.70;100.00;102690.63;5073847;28;20435;-52
2022/12/17 20:14:29;;;;;;;89.00;59.40;;;;;;;-4.70;100.00;102682.81;5073442;28;20439;-48
2022/12/17 20:16:59;;;;;;;92.03;60.33;;;;;;;-4.72;100.00;102697.63;5068680;28;20470;-46
2022/12/17 20:19:31;;;;;;;100.27;59.10;;;;;;;-4.73;100.00;102698.53;5053738;28;20446;-46
2022/12/17 20:22:01;;;;;;;89.40;59.20;;;;;;;-4.76;100.00;102699.50;5053908;28;20443;-49
2022/12/17 20:24:28;;;;;;;103.00;59.13;;;;;;;-4.76;100.00;102696.03;5053383;28;20435;-48
2022/12/17 20:26:59;;;;;;;104.13;61.93;;;;;;;-4.77;100.00;102692.56;5058052;28;20459;-49
2022/12/17 20:29:27;;;;;;;78.73;57.10;;;;;;;-4.74;100.00;102694.22;5073605;28;20478;-49
2022/12/17 20:31:55;;;;;;;99.77;59.60;;;;;;;-4.76;100.00;102702.09;5073371;28;20844;-50
2022/12/17 20:34:24;;;;;;;93.13;59.03;;;;;;;-4.78;100.00;102690.84;5072778;28;20434;-48
2022/12/17 20:36:54;;;;;;;91.70;59.13;;;;;;;-4.80;100.00;102703.09;5070764;28;20833;-48
2022/12/17 20:39:22;;;;;;;93.73;58.10;;;;;;;-4.84;100.00;102693.69;5073392;28;20755;-47
2022/12/17 20:41:55;;;;;;;99.83;58.70;;;;;;;-4.85;100.00;102689.38;5073939;28;20525;-47
2022/12/17 20:44:23;;;;;;;85.63;57.60;;;;;;;-4.88;100.00;102683.41;5073214;28;20437;-48
2022/12/17 20:46:50;;;;;;;98.93;59.77;;;;;;;-4.94;100.00;102686.22;5067169;28;20470;-49
2022/12/17 20:49:18;;;;;;;96.03;57.53;;;;;;;-5.02;100.00;102682.09;5073319;28;20433;-48
2022/12/17 20:51:46;;;;;;;88.90;58.40;;;;;;;-5.05;100.00;102689.19;5072621;28;20438;-47
2022/12/17 20:54:15;;;;;;;99.23;62.07;;;;;;;-5.10;100.00;102691.06;5073033;28;20439;-46
2022/12/17 20:56:43;;;;;;;90.43;59.87;;;;;;;-5.18;100.00;102695.66;5072993;28;20423;-50
2022/12/17 20:59:15;;;;;;;88.60;56.47;;;;;;;-5.26;100.00;102701.13;5072737;28;20441;-49
2022/12/17 21:01:42;;;;;;;91.70;58.53;;;;;;;-5.33;100.00;102698.75;5073478;28;20431;-49
2022/12/17 21:04:12;;;;;;;91.50;57.03;;;;;;;-5.37;100.00;102698.00;5072765;28;20454;-49
2022/12/17 21:06:41;;;;;;;87.20;57.90;;;;;;;-5.44;100.00;102693.91;5071611;28;21165;-48
2022/12/17 21:09:10;;;;;;;85.37;58.00;;;;;;;-5.50;100.00;102704.47;5072658;28;20434;-50
2022/12/17 21:11:41;;;;;;;92.40;57.87;;;;;;;-5.55;100.00;102702.91;5072307;28;20453;-46
2022/12/17 21:14:10;;;;;;;90.73;59.60;;;;;;;-5.62;100.00;102708.31;5070576;28;20439;-47
2022/12/17 21:16:40;;;;;;;76.07;55.53;;;;;;;-5.68;100.00;102708.47;5064050;28;20431;-48
2022/12/17 21:19:11;;;;;;;81.03;53.70;;;;;;;-5.72;100.00;102706.00;5072839;28;20430;-51
2022/12/17 21:21:39;;;;;;;76.37;55.23;;;;;;;-5.76;100.00;102706.97;5072311;28;20456;-50
2022/12/17 21:24:08;;;;;;;86.50;55.20;;;;;;;-5.79;100.00;102700.13;5072497;28;20503;-51
2022/12/17 21:26:39;;;;;;;80.50;53.23;;;;;;;-5.83;100.00;102698.53;5071914;28;20583;-50
2022/12/17 21:29:09;;;;;;;77.70;56.80;;;;;;;-5.86;100.00;102698.66;5072678;28;20434;-50
2022/12/17 21:31:39;;;;;;;75.07;50.73;;;;;;;-5.89;100.00;102698.75;5072369;28;20460;-52
2022/12/17 21:34:10;;;;;;;69.47;50.73;;;;;;;-5.90;100.00;102697.03;5070811;28;20430;-49
2022/12/17 21:36:38;;;;;;;83.90;52.93;;;;;;;-5.93;100.00;102689.31;5068050;28;20434;-50
2022/12/17 21:39:07;;;;;;;72.10;51.83;;;;;;;-5.96;100.00;102689.41;5052360;28;20431;-50
2022/12/17 21:41:38;;;;;;;63.77;52.80;;;;;;;-5.97;100.00;102692.06;5052314;28;20489;-50
2022/12/17 21:44:13;;;;;;;61.90;53.87;;;;;;;-6.00;100.00;102699.94;5051163;28;20423;-49
2022/12/17 21:46:42;;;;;;;59.63;48.97;;;;;;;-6.00;100.00;102686.97;5051734;28;20481;-49
2022/12/17 21:49:16;;;;;;;64.43;51.57;;;;;;;-6.01;100.00;102686.09;5051408;28;20798;-45
2022/12/17 21:51:44;;;;;;;59.70;48.70;;;;;;;-6.03;100.00;102682.69;5052453;28;20461;-49
2022/12/17 21:54:12;;;;;;;64.87;49.80;;;;;;;-6.05;100.00;102687.06;5052143;28;20431;-49
2022/12/17 21:56:46;;;;;;;66.80;50.20;;;;;;;-6.03;100.00;102694.84;5051867;28;20487;-47
2022/12/17 21:59:15;;;;;;;60.83;48.90;;;;;;;-6.03;100.00;102702.63;5051798;28;21006;-49
2022/12/17 22:01:43;;;;;;;62.53;49.63;;;;;;;-6.03;100.00;102702.63;5051921;28;20466;-48
2022/12/17 22:04:11;;;;;;;63.67;49.47;;;;;;;-5.99;100.00;102712.03;5047796;28;20451;-47
2022/12/17 22:06:39;;;;;;;52.60;46.90;;;;;;;-6.01;100.00;102717.28;5046244;28;20464;-48
2022/12/17 22:09:25;;;;;;;71.40;49.50;;;;;;;-6.01;100.00;102737.19;5034351;28;20456;-45
2022/12/17 22:15:00;;;;;;;56.10;46.97;;;;;;;-5.97;100.00;102736.22;5031792;28;20432;-49
2022/12/17 22:17:28;;;;;;;56.07;46.80;;;;;;;-5.97;100.00;102744.03;5030823;28;20531;-48
2022/12/17 22:19:55;;;;;;;59.93;48.00;;;;;;;-6.02;100.00;102740.69;5031747;28;20482;-48
2022/12/17 22:22:23;;;;;;;67.17;48.60;;;;;;;-6.02;100.00;102736.34;5031800;28;21009;-47
2022/12/17 22:24:50;;;;;;;54.93;48.93;;;;;;;-6.03;100.00;102746.78;5031653;28;20435;-48
2022/12/17 22:27:18;;;;;;;60.73;48.03;;;;;;;-6.06;100.00;102749.47;5031567;28;20997;-50
2022/12/17 22:35:19;;;;;;;50.33;44.90;;;;;;;-6.09;100.00;102752.97;5031456;28;20433;-49
2022/12/17 22:38:07;;;;;;;64.87;50.23;;;;;;;-6.10;100.00;102753.03;5038923;28;20452;-53
2022/12/17 22:40:55;;;;;;;56.93;49.30;;;;;;;-6.13;100.00;102745.31;5051799;28;20455;-48
2022/12/17 22:43:41;;;;;;;63.50;45.60;;;;;;;-6.14;100.00;102746.19;5051456;28;20436;-52
2022/12/17 22:46:30;;;;;;;67.20;47.47;;;;;;;-6.19;100.00;102747.19;5051869;28;20436;-48
2022/12/17 22:48:59;;;;;;;54.73;48.40;;;;;;;-6.22;100.00;102767.19;5070893;28;20527;-49
2022/12/17 22:51:27;;;;;;;70.90;49.17;;;;;;;-6.25;100.00;102780.25;5071298;28;20447;-45
2022/12/17 22:54:07;;;;;;;55.03;49.03;;;;;;;-6.29;100.00;102779.47;5071331;28;20484;-48
2022/12/17 22:56:36;;;;;;;50.30;44.20;;;;;;;-6.31;100.00;102783.00;5073206;28;20427;-52
2022/12/17 22:59:24;;;;;;;54.13;44.00;;;;;;;-6.33;100.00;102784.81;5055517;28;20822;-52
2022/12/17 23:01:52;;;;;;;54.20;45.13;;;;;;;-6.37;100.00;102773.63;5055367;28;21011;-51
2022/12/17 23:04:21;;;;;;;65.93;46.23;;;;;;;-6.39;100.00;102783.19;5054967;28;20435;-51
2022/12/17 23:06:49;;;;;;;52.80;46.07;;;;;;;-6.43;100.00;102778.13;5058232;28;20462;-51
2022/12/17 23:09:19;;;;;;;58.10;48.13;;;;;;;-6.44;100.00;102773.81;5075044;28;20981;-48
2022/12/17 23:11:48;;;;;;;49.67;43.83;;;;;;;-6.45;100.00;102777.31;5084365;22;20837;-46
2022/12/17 23:14:16;;;;;;;54.07;45.73;;;;;;;-6.46;100.00;102773.00;5054710;28;20431;-46
2022/12/17 23:16:45;;;;;;;54.30;45.37;;;;;;;-6.48;100.00;102773.03;5053706;28;20937;-47
2022/12/17 23:19:14;;;;;;;56.43;43.17;;;;;;;-6.50;100.00;102780.03;5054479;28;20500;-49
2022/12/17 23:21:43;;;;;;;54.10;47.63;;;;;;;-6.52;100.00;102778.38;5039921;28;20805;-49
2022/12/17 23:24:10;;;;;;;52.20;44.67;;;;;;;-6.53;100.00;102774.91;5034014;28;20435;-49
2022/12/17 23:26:39;;;;;;;51.33;44.63;;;;;;;-6.56;100.00;102768.94;5033358;28;21030;-48
2022/12/17 23:29:13;;;;;;;58.17;45.77;;;;;;;-6.61;100.00;102769.06;5033520;28;20506;-50
2022/12/17 23:31:46;;;;;;;49.30;43.90;;;;;;;-6.72;100.00;102765.91;5033926;28;20460;-50
2022/12/17 23:34:14;;;;;;;55.77;44.80;;;;;;;-6.77;100.00;102767.72;5033860;28;20427;-46
2022/12/17 23:36:43;;;;;;;67.17;44.27;;;;;;;-6.75;100.00;102763.38;5031257;28;20486;-52
2022/12/17 23:39:11;;;;;;;50.37;44.00;;;;;;;-6.78;100.00;102766.88;5045584;28;20768;-46
2022/12/17 23:41:39;;;;;;;51.03;44.13;;;;;;;-6.75;100.00;102771.16;5053331;28;20455;-50
2022/12/17 23:44:06;;;;;;;48.87;43.90;;;;;;;-6.70;100.00;102773.63;5053511;28;20439;-49
2022/12/17 23:46:34;;;;;;;49.70;43.40;;;;;;;-6.67;100.00;102764.03;5053308;28;20848;-51
2022/12/17 23:49:04;;;;;;;52.23;45.23;;;;;;;-6.64;100.00;102756.16;5053777;28;20540;-50
2022/12/17 23:51:32;;;;;;;49.37;44.00;;;;;;;-6.61;100.00;102748.31;5053563;28;20463;-48
2022/12/17 23:54:01;;;;;;;50.47;43.90;;;;;;;-6.61;100.00;102753.50;5052814;28;20434;-48
2022/12/17 23:56:29;;;;;;;56.47;48.27;;;;;;;-6.58;100.00;102756.00;5053141;28;20801;-45
2022/12/17 23:58:59;;;;;;;51.00;45.57;;;;;;;-6.56;100.00;102753.38;5053615;28;20427;-49
